createdAt,value
2019-03-26T00:00:18.807Z,2
2019-03-26T00:01:18.885Z,2
2019-03-26T00:02:18.815Z,2
2019-03-26T00:03:18.797Z,2
2019-03-26T00:04:18.800Z,2
2019-03-26T00:05:18.835Z,2
2019-03-26T00:06:18.852Z,2
2019-03-26T00:07:18.819Z,2
2019-03-26T00:08:18.820Z,2
2019-03-26T00:09:18.823Z,2
2019-03-26T00:10:18.847Z,2
2019-03-26T00:11:18.902Z,2
2019-03-26T00:12:18.779Z,2
2019-03-26T00:13:18.788Z,2
2019-03-26T00:14:20.039Z,2
2019-03-26T00:15:18.691Z,2
2019-03-26T00:16:18.770Z,2
2019-03-26T00:17:18.682Z,2
2019-03-26T00:18:18.793Z,2
2019-03-26T00:19:18.649Z,2
2019-03-26T00:20:19.053Z,2
2019-03-26T00:21:18.652Z,2
2019-03-26T00:22:18.643Z,2
2019-03-26T00:23:18.649Z,2
2019-03-26T00:24:18.681Z,2
2019-03-26T00:25:18.700Z,2
2019-03-26T00:26:18.982Z,2
2019-03-26T00:27:18.719Z,2
2019-03-26T00:28:18.662Z,2
2019-03-26T00:29:18.721Z,2
2019-03-26T00:30:18.725Z,2
2019-03-26T00:31:18.675Z,2
2019-03-26T00:32:18.759Z,2
2019-03-26T00:33:18.684Z,2
2019-03-26T00:34:19.702Z,2
2019-03-26T00:35:18.644Z,2
2019-03-26T00:36:18.724Z,2
2019-03-26T00:37:19.027Z,2
2019-03-26T00:38:18.786Z,2
2019-03-26T00:39:18.661Z,2
2019-03-26T00:40:18.680Z,2
2019-03-26T00:41:18.633Z,2
2019-03-26T00:42:18.757Z,2
2019-03-26T00:43:18.639Z,2
2019-03-26T00:44:18.648Z,2
2019-03-26T00:45:18.653Z,2
2019-03-26T00:46:18.647Z,2
2019-03-26T00:47:18.734Z,2
2019-03-26T00:48:18.984Z,2
2019-03-26T00:49:18.668Z,2
2019-03-26T00:50:18.650Z,2
2019-03-26T00:51:18.727Z,2
2019-03-26T00:52:18.698Z,2
2019-03-26T00:53:18.669Z,2
2019-03-26T00:54:18.733Z,2
2019-03-26T00:55:22.835Z,2
2019-03-26T00:56:18.634Z,2
2019-03-26T00:57:18.649Z,2
2019-03-26T00:58:18.670Z,2
2019-03-26T00:59:18.712Z,2
2019-03-26T01:00:18.651Z,2
2019-03-26T01:01:18.766Z,2
2019-03-26T01:02:18.902Z,2
2019-03-26T01:03:18.723Z,2
2019-03-26T01:04:31.816Z,2
2019-03-26T01:05:19.151Z,2
2019-03-26T01:06:19.900Z,2
2019-03-26T01:07:18.723Z,2
2019-03-26T01:08:18.686Z,2
2019-03-26T01:09:18.734Z,2
2019-03-26T01:10:18.691Z,2
2019-03-26T01:11:18.663Z,2
2019-03-26T01:12:18.717Z,2
2019-03-26T01:13:18.647Z,2
2019-03-26T01:14:18.653Z,2
2019-03-26T01:15:18.693Z,2
2019-03-26T01:16:18.948Z,2
2019-03-26T01:17:18.635Z,2
2019-03-26T01:18:18.639Z,2
2019-03-26T01:19:18.647Z,2
2019-03-26T01:20:18.697Z,2
2019-03-26T01:21:18.684Z,2
2019-03-26T01:22:18.636Z,2
2019-03-26T01:23:18.672Z,2
2019-03-26T01:24:18.633Z,2
2019-03-26T01:25:18.694Z,2
2019-03-26T01:26:18.631Z,2
2019-03-26T01:27:18.634Z,2
2019-03-26T01:28:18.645Z,2
2019-03-26T01:29:18.671Z,2
2019-03-26T01:30:18.720Z,2
2019-03-26T01:31:18.638Z,2
2019-03-26T01:32:18.637Z,2
2019-03-26T01:33:18.955Z,2
2019-03-26T01:34:18.646Z,2
2019-03-26T01:36:18.696Z,2
2019-03-26T01:38:20.678Z,1
2019-03-26T01:39:18.642Z,2
2019-03-26T01:40:18.984Z,2
2019-03-26T01:41:18.684Z,2
2019-03-26T01:42:18.654Z,2
2019-03-26T01:43:18.643Z,2
2019-03-26T01:44:18.652Z,2
2019-03-26T01:45:18.682Z,2
2019-03-26T01:46:18.634Z,2
2019-03-26T01:47:18.673Z,2
2019-03-26T01:48:18.639Z,2
2019-03-26T01:49:18.917Z,2
2019-03-26T01:50:18.649Z,2
2019-03-26T01:51:18.635Z,2
2019-03-26T01:52:18.637Z,2
2019-03-26T01:53:20.327Z,2
2019-03-26T01:54:18.825Z,2
2019-03-26T01:55:18.636Z,2
2019-03-26T01:56:18.634Z,2
2019-03-26T01:57:18.655Z,2
2019-03-26T01:58:18.663Z,2
2019-03-26T01:59:18.799Z,2
2019-03-26T02:00:18.643Z,2
2019-03-26T02:01:18.636Z,2
2019-03-26T02:02:18.643Z,2
2019-03-26T02:03:18.724Z,2
2019-03-26T02:04:18.654Z,2
2019-03-26T02:05:18.631Z,2
2019-03-26T02:06:18.646Z,2
2019-03-26T02:07:18.976Z,2
2019-03-26T02:08:18.679Z,2
2019-03-26T02:09:18.699Z,2
2019-03-26T02:10:18.693Z,2
2019-03-26T02:11:18.706Z,2
2019-03-26T02:12:18.636Z,2
2019-03-26T02:13:18.951Z,2
2019-03-26T02:14:18.636Z,2
2019-03-26T02:15:18.635Z,2
2019-03-26T02:16:18.918Z,2
2019-03-26T02:17:18.670Z,2
2019-03-26T02:19:18.665Z,2
2019-03-26T02:20:18.637Z,2
2019-03-26T02:21:18.717Z,2
2019-03-26T02:23:18.694Z,2
2019-03-26T02:24:18.654Z,2
2019-03-26T02:26:18.836Z,2
2019-03-26T02:27:18.670Z,2
2019-03-26T02:28:18.651Z,2
2019-03-26T02:29:18.923Z,2
2019-03-26T02:30:18.639Z,2
2019-03-26T02:31:18.693Z,2
2019-03-26T02:32:18.700Z,2
2019-03-26T02:33:18.651Z,2
2019-03-26T02:34:18.676Z,2
2019-03-26T02:35:19.415Z,2
2019-03-26T02:36:18.635Z,2
2019-03-26T02:37:18.690Z,2
2019-03-26T02:38:18.933Z,2
2019-03-26T02:39:18.646Z,2
2019-03-26T02:40:18.721Z,2
2019-03-26T02:41:18.927Z,2
2019-03-26T02:42:18.666Z,2
2019-03-26T02:43:18.634Z,2
2019-03-26T02:44:18.681Z,2
2019-03-26T02:45:18.633Z,2
2019-03-26T02:46:18.640Z,2
2019-03-26T02:47:18.673Z,2
2019-03-26T02:48:18.646Z,2
2019-03-26T02:49:18.690Z,2
2019-03-26T02:50:18.770Z,2
2019-03-26T02:51:18.687Z,2
2019-03-26T02:52:18.991Z,2
2019-03-26T02:53:18.660Z,2
2019-03-26T02:54:18.638Z,2
2019-03-26T02:55:18.689Z,2
2019-03-26T02:56:18.737Z,2
2019-03-26T02:57:18.657Z,2
2019-03-26T02:58:18.957Z,2
2019-03-26T02:59:18.646Z,2
2019-03-26T03:00:18.705Z,2
2019-03-26T03:01:18.631Z,2
2019-03-26T03:02:18.691Z,2
2019-03-26T03:03:18.644Z,2
2019-03-26T03:04:18.657Z,2
2019-03-26T03:05:34.446Z,2
2019-03-26T03:06:18.656Z,2
2019-03-26T03:07:18.709Z,2
2019-03-26T03:08:18.681Z,2
2019-03-26T03:09:18.925Z,2
2019-03-26T03:10:18.653Z,2
2019-03-26T03:11:18.648Z,2
2019-03-26T03:12:18.709Z,2
2019-03-26T03:13:18.631Z,2
2019-03-26T03:14:18.637Z,2
2019-03-26T03:15:18.648Z,2
2019-03-26T03:16:18.634Z,2
2019-03-26T03:17:18.688Z,2
2019-03-26T03:18:18.647Z,2
2019-03-26T03:19:18.732Z,2
2019-03-26T03:20:18.955Z,2
2019-03-26T03:21:18.644Z,2
2019-03-26T03:22:18.666Z,2
2019-03-26T03:23:18.636Z,2
2019-03-26T03:24:18.641Z,2
2019-03-26T03:25:18.643Z,2
2019-03-26T03:26:18.639Z,2
2019-03-26T03:27:18.702Z,2
2019-03-26T03:28:18.647Z,2
2019-03-26T03:29:18.698Z,2
2019-03-26T03:30:18.666Z,2
2019-03-26T03:31:18.630Z,2
2019-03-26T03:32:18.674Z,2
2019-03-26T03:33:18.762Z,2
2019-03-26T03:34:22.786Z,2
2019-03-26T03:35:18.850Z,2
2019-03-26T03:36:18.731Z,2
2019-03-26T03:37:18.678Z,2
2019-03-26T03:38:18.656Z,2
2019-03-26T03:39:18.633Z,2
2019-03-26T03:40:18.662Z,2
2019-03-26T03:41:18.663Z,2
2019-03-26T03:42:18.672Z,2
2019-03-26T03:43:18.709Z,2
2019-03-26T03:44:18.716Z,2
2019-03-26T03:45:18.638Z,2
2019-03-26T03:46:18.711Z,2
2019-03-26T03:47:18.672Z,2
2019-03-26T03:48:18.816Z,2
2019-03-26T03:49:18.627Z,2
2019-03-26T03:50:18.661Z,2
2019-03-26T03:51:18.667Z,2
2019-03-26T03:52:18.701Z,2
2019-03-26T03:53:18.677Z,2
2019-03-26T03:54:18.695Z,2
2019-03-26T03:55:18.647Z,2
2019-03-26T03:56:18.646Z,2
2019-03-26T03:57:18.726Z,2
2019-03-26T03:58:18.931Z,2
2019-03-26T03:59:18.734Z,2
2019-03-26T04:00:18.648Z,2
2019-03-26T04:01:18.644Z,2
2019-03-26T04:02:18.728Z,2
2019-03-26T04:03:18.777Z,2
2019-03-26T04:04:18.678Z,2
2019-03-26T04:05:18.703Z,2
2019-03-26T04:06:18.644Z,2
2019-03-26T04:07:18.632Z,2
2019-03-26T04:08:18.641Z,2
2019-03-26T04:09:18.676Z,3
2019-03-26T04:10:18.658Z,2
2019-03-26T04:11:18.627Z,2
2019-03-26T04:12:18.632Z,2
2019-03-26T04:13:18.626Z,2
2019-03-26T04:14:18.793Z,2
2019-03-26T04:15:18.648Z,2
2019-03-26T04:16:18.658Z,2
2019-03-26T04:17:18.633Z,2
2019-03-26T04:18:18.656Z,2
2019-03-26T04:19:18.726Z,2
2019-03-26T04:21:18.630Z,2
2019-03-26T04:22:18.721Z,2
2019-03-26T04:23:18.657Z,2
2019-03-26T04:24:19.090Z,2
2019-03-26T04:25:18.721Z,2
2019-03-26T04:26:18.640Z,2
2019-03-26T04:27:18.633Z,2
2019-03-26T04:28:18.639Z,2
2019-03-26T04:29:18.720Z,2
2019-03-26T04:30:18.694Z,2
2019-03-26T04:31:18.647Z,2
2019-03-26T04:32:18.712Z,2
2019-03-26T04:33:18.705Z,2
2019-03-26T04:34:22.415Z,2
2019-03-26T04:35:18.699Z,2
2019-03-26T04:36:26.130Z,2
2019-03-26T04:37:18.692Z,2
2019-03-26T04:38:18.633Z,2
2019-03-26T04:39:18.640Z,2
2019-03-26T04:40:18.738Z,2
2019-03-26T04:41:18.629Z,2
2019-03-26T04:42:18.645Z,2
2019-03-26T04:43:19.002Z,2
2019-03-26T04:44:18.655Z,2
2019-03-26T04:45:18.706Z,2
2019-03-26T04:46:18.644Z,2
2019-03-26T04:47:18.658Z,2
2019-03-26T04:48:18.661Z,2
2019-03-26T04:49:18.666Z,2
2019-03-26T04:50:19.711Z,2
2019-03-26T04:51:18.696Z,2
2019-03-26T04:52:18.665Z,2
2019-03-26T04:53:18.644Z,2
2019-03-26T04:54:18.639Z,2
2019-03-26T04:55:18.709Z,2
2019-03-26T04:56:18.656Z,2
2019-03-26T04:57:18.684Z,2
2019-03-26T04:58:18.793Z,2
2019-03-26T04:59:18.690Z,2
2019-03-26T05:00:18.644Z,2
2019-03-26T05:01:18.738Z,2
2019-03-26T05:02:18.998Z,2
2019-03-26T05:03:18.664Z,2
2019-03-26T05:04:18.671Z,2
2019-03-26T05:05:18.631Z,2
2019-03-26T05:06:18.720Z,2
2019-03-26T05:07:18.887Z,2
2019-03-26T05:08:18.634Z,2
2019-03-26T05:09:18.714Z,2
2019-03-26T05:10:18.652Z,2
2019-03-26T05:11:18.805Z,2
2019-03-26T05:12:18.710Z,2
2019-03-26T05:13:18.720Z,2
2019-03-26T05:14:18.975Z,2
2019-03-26T05:15:18.664Z,2
2019-03-26T05:16:18.667Z,2
2019-03-26T05:17:18.662Z,2
2019-03-26T05:18:18.986Z,2
2019-03-26T05:19:18.639Z,2
2019-03-26T05:20:18.956Z,2
2019-03-26T05:21:18.710Z,2
2019-03-26T05:22:24.017Z,2
2019-03-26T05:23:18.670Z,2
2019-03-26T05:24:18.661Z,2
2019-03-26T05:25:18.733Z,2
2019-03-26T05:26:18.715Z,2
2019-03-26T05:27:18.740Z,2
2019-03-26T05:28:18.629Z,2
2019-03-26T05:29:18.692Z,2
2019-03-26T05:30:18.670Z,2
2019-03-26T05:31:18.634Z,2
2019-03-26T05:32:18.936Z,2
2019-03-26T05:33:18.717Z,2
2019-03-26T05:34:18.676Z,2
2019-03-26T05:35:18.651Z,2
2019-03-26T05:36:18.701Z,2
2019-03-26T05:37:18.677Z,2
2019-03-26T05:38:18.718Z,2
2019-03-26T05:39:18.969Z,2
2019-03-26T05:40:18.664Z,2
2019-03-26T05:41:18.722Z,2
2019-03-26T05:42:18.665Z,2
2019-03-26T05:43:19.064Z,2
2019-03-26T05:44:18.689Z,2
2019-03-26T05:45:18.717Z,2
2019-03-26T05:46:18.659Z,2
2019-03-26T05:47:18.670Z,2
2019-03-26T05:48:18.719Z,2
2019-03-26T05:49:18.706Z,2
2019-03-26T05:50:18.632Z,2
2019-03-26T05:51:18.638Z,2
2019-03-26T05:52:18.677Z,2
2019-03-26T05:53:18.786Z,2
2019-03-26T05:54:19.034Z,2
2019-03-26T05:55:18.633Z,2
2019-03-26T05:56:18.685Z,3
2019-03-26T05:57:18.710Z,3
2019-03-26T05:58:18.634Z,2
2019-03-26T05:59:18.648Z,2
2019-03-26T06:00:18.684Z,2
2019-03-26T06:01:19.094Z,3
2019-03-26T06:02:18.712Z,3
2019-03-26T06:03:18.672Z,3
2019-03-26T06:04:18.721Z,3
2019-03-26T06:05:18.662Z,3
2019-03-26T06:06:18.804Z,3
2019-03-26T06:07:18.757Z,3
2019-03-26T06:08:18.634Z,3
2019-03-26T06:09:18.688Z,2
2019-03-26T06:10:18.635Z,2
2019-03-26T06:11:18.760Z,3
2019-03-26T06:12:18.644Z,2
2019-03-26T06:13:18.677Z,2
2019-03-26T06:14:18.688Z,2
2019-03-26T06:15:18.634Z,2
2019-03-26T06:16:18.714Z,2
2019-03-26T06:17:18.710Z,2
2019-03-26T06:18:18.659Z,3
2019-03-26T06:19:18.674Z,2
2019-03-26T06:20:18.683Z,2
2019-03-26T06:21:18.641Z,2
2019-03-26T06:22:18.728Z,2
2019-03-26T06:23:18.630Z,2
2019-03-26T06:24:18.632Z,2
2019-03-26T06:25:18.629Z,2
2019-03-26T06:26:18.671Z,2
2019-03-26T06:27:18.778Z,2
2019-03-26T06:28:18.704Z,3
2019-03-26T06:29:18.635Z,3
2019-03-26T06:30:18.741Z,3
2019-03-26T06:31:18.948Z,3
2019-03-26T06:32:18.634Z,3
2019-03-26T06:33:18.728Z,2
2019-03-26T06:34:18.672Z,2
2019-03-26T06:35:18.713Z,2
2019-03-26T06:36:18.811Z,2
2019-03-26T06:37:19.015Z,2
2019-03-26T06:38:18.720Z,2
2019-03-26T06:39:18.722Z,2
2019-03-26T06:40:18.705Z,2
2019-03-26T06:41:18.705Z,2
2019-03-26T06:42:18.657Z,2
2019-03-26T06:43:18.618Z,2
2019-03-26T06:44:18.615Z,2
2019-03-26T06:45:18.672Z,2
2019-03-26T06:46:18.674Z,2
2019-03-26T06:47:18.655Z,3
2019-03-26T06:48:18.646Z,4
2019-03-26T06:49:18.636Z,3
2019-03-26T06:50:19.028Z,3
2019-03-26T06:51:18.728Z,3
2019-03-26T06:52:18.641Z,3
2019-03-26T06:53:18.991Z,7
2019-03-26T06:54:19.146Z,7
2019-03-26T06:55:20.540Z,9
2019-03-26T06:56:18.696Z,3
2019-03-26T06:57:18.686Z,5
2019-03-26T06:58:19.490Z,4
2019-03-26T06:59:18.810Z,4
2019-03-26T07:00:19.092Z,4
2019-03-26T07:01:18.685Z,4
2019-03-26T07:02:18.913Z,3
2019-03-26T07:03:18.693Z,3
2019-03-26T07:04:18.700Z,3
2019-03-26T07:05:18.635Z,3
2019-03-26T07:06:18.694Z,4
2019-03-26T07:07:31.043Z,5
2019-03-26T07:08:18.626Z,5
2019-03-26T07:09:18.777Z,4
2019-03-26T07:10:18.690Z,4
2019-03-26T07:11:18.636Z,4
2019-03-26T07:12:18.657Z,5
2019-03-26T07:13:18.692Z,5
2019-03-26T07:14:18.863Z,5
2019-03-26T07:15:18.727Z,7
2019-03-26T07:16:18.732Z,4
2019-03-26T07:17:18.686Z,4
2019-03-26T07:18:18.684Z,5
2019-03-26T07:19:18.686Z,6
2019-03-26T07:20:18.729Z,5
2019-03-26T07:21:18.738Z,4
2019-03-26T07:22:18.709Z,3
2019-03-26T07:23:18.890Z,3
2019-03-26T07:24:18.690Z,2
2019-03-26T07:25:18.703Z,2
2019-03-26T07:26:20.001Z,4
2019-03-26T07:27:19.093Z,4
2019-03-26T07:28:18.691Z,4
2019-03-26T07:29:18.683Z,3
2019-03-26T07:30:18.697Z,2
2019-03-26T07:31:18.716Z,2
2019-03-26T07:32:18.791Z,2
2019-03-26T07:33:18.685Z,2
2019-03-26T07:34:18.688Z,2
2019-03-26T07:35:18.707Z,2
2019-03-26T07:36:18.690Z,2
2019-03-26T07:37:18.802Z,2
2019-03-26T07:38:18.701Z,2
2019-03-26T07:39:18.684Z,2
2019-03-26T07:40:18.698Z,2
2019-03-26T07:41:18.762Z,2
2019-03-26T07:42:19.024Z,2
2019-03-26T07:43:18.681Z,2
2019-03-26T07:44:18.637Z,2
2019-03-26T07:45:18.678Z,2
2019-03-26T07:46:18.671Z,2
2019-03-26T07:47:18.695Z,2
2019-03-26T07:48:18.681Z,2
2019-03-26T07:49:18.682Z,2
2019-03-26T07:50:18.650Z,2
2019-03-26T07:51:18.681Z,2
2019-03-26T07:52:18.692Z,2
2019-03-26T07:53:18.716Z,2
2019-03-26T07:54:18.803Z,2
2019-03-26T07:55:18.777Z,2
2019-03-26T07:56:18.789Z,2
2019-03-26T07:57:20.121Z,3
2019-03-26T07:58:18.856Z,2
2019-03-26T07:59:18.936Z,2
2019-03-26T08:00:18.799Z,2
2019-03-26T08:01:18.741Z,2
2019-03-26T08:02:18.714Z,2
2019-03-26T08:03:21.110Z,3
2019-03-26T08:04:18.708Z,3
2019-03-26T08:05:29.294Z,2
2019-03-26T08:06:18.757Z,2
2019-03-26T08:07:18.680Z,2
2019-03-26T08:08:19.289Z,3
2019-03-26T08:09:20.311Z,3
2019-03-26T08:10:19.190Z,3
2019-03-26T08:11:18.711Z,3
2019-03-26T08:12:19.154Z,3
2019-03-26T08:13:18.699Z,3
2019-03-26T08:14:18.692Z,3
2019-03-26T08:15:20.254Z,3
2019-03-26T08:16:18.755Z,3
2019-03-26T08:17:18.709Z,4
2019-03-26T08:18:18.854Z,5
2019-03-26T08:19:18.910Z,5
2019-03-26T08:20:18.691Z,6
2019-03-26T08:21:18.674Z,5
2019-03-26T08:22:18.773Z,5
2019-03-26T08:23:18.687Z,6
2019-03-26T08:24:19.021Z,4
2019-03-26T08:25:18.634Z,3
2019-03-26T08:26:18.729Z,3
2019-03-26T08:27:18.645Z,3
2019-03-26T08:28:18.690Z,3
2019-03-26T08:29:18.707Z,4
2019-03-26T08:30:18.633Z,2
2019-03-26T08:31:18.669Z,2
2019-03-26T08:32:18.634Z,2
2019-03-26T08:33:18.684Z,2
2019-03-26T08:34:18.694Z,3
2019-03-26T08:35:18.624Z,3
2019-03-26T08:36:18.641Z,2
2019-03-26T08:37:18.815Z,3
2019-03-26T08:38:18.698Z,3
2019-03-26T08:39:18.645Z,3
2019-03-26T08:40:18.712Z,3
2019-03-26T08:41:18.613Z,3
2019-03-26T08:42:18.622Z,3
2019-03-26T08:43:18.622Z,3
2019-03-26T08:44:18.641Z,2
2019-03-26T08:45:18.713Z,2
2019-03-26T08:46:18.637Z,2
2019-03-26T08:47:18.660Z,2
2019-03-26T08:48:18.606Z,4
2019-03-26T08:49:18.616Z,3
2019-03-26T08:50:18.875Z,3
2019-03-26T08:51:18.600Z,2
2019-03-26T08:52:18.623Z,2
2019-03-26T08:53:18.707Z,2
2019-03-26T08:54:18.674Z,3
2019-03-26T08:55:18.623Z,3
2019-03-26T08:56:19.105Z,4
2019-03-26T08:57:18.670Z,3
2019-03-26T08:58:18.654Z,4
2019-03-26T08:59:18.823Z,4
2019-03-26T09:00:18.651Z,3
2019-03-26T09:01:18.932Z,4
2019-03-26T09:02:20.565Z,4
2019-03-26T09:03:22.701Z,4
2019-03-26T09:04:19.884Z,4
2019-03-26T09:05:18.617Z,3
2019-03-26T09:06:21.039Z,4
2019-03-26T09:07:18.759Z,3
2019-03-26T09:08:25.599Z,4
2019-03-26T09:09:19.402Z,4
2019-03-26T09:10:18.780Z,4
2019-03-26T09:11:18.642Z,2
2019-03-26T09:12:18.661Z,2
2019-03-26T09:13:18.631Z,2
2019-03-26T09:14:18.689Z,2
2019-03-26T09:15:18.644Z,2
2019-03-26T09:16:18.616Z,2
2019-03-26T09:17:20.007Z,2
2019-03-26T09:18:18.672Z,2
2019-03-26T09:19:18.731Z,2
2019-03-26T09:20:18.625Z,2
2019-03-26T09:21:18.615Z,2
2019-03-26T09:22:18.669Z,2
2019-03-26T09:23:18.652Z,2
2019-03-26T09:24:18.669Z,2
2019-03-26T09:25:18.624Z,2
2019-03-26T09:26:18.613Z,2
2019-03-26T09:27:18.681Z,2
2019-03-26T09:28:18.627Z,2
2019-03-26T09:29:18.651Z,3
2019-03-26T09:30:18.643Z,3
2019-03-26T09:31:18.712Z,3
2019-03-26T09:32:24.637Z,3
2019-03-26T09:33:18.745Z,3
2019-03-26T09:34:18.648Z,3
2019-03-26T09:35:18.626Z,3
2019-03-26T09:36:18.643Z,3
2019-03-26T09:37:18.696Z,3
2019-03-26T09:38:18.719Z,3
2019-03-26T09:39:18.652Z,3
2019-03-26T09:40:18.665Z,3
2019-03-26T09:41:18.656Z,3
2019-03-26T09:42:18.683Z,3
2019-03-26T09:43:18.686Z,3
2019-03-26T09:44:18.625Z,3
2019-03-26T09:45:18.588Z,3
2019-03-26T09:46:18.928Z,3
2019-03-26T09:47:18.600Z,3
2019-03-26T09:48:18.733Z,3
2019-03-26T09:49:18.725Z,3
2019-03-26T09:50:18.587Z,3
2019-03-26T09:51:18.600Z,3
2019-03-26T09:52:18.653Z,3
2019-03-26T09:53:18.647Z,3
2019-03-26T09:54:18.588Z,3
2019-03-26T09:55:18.644Z,3
2019-03-26T09:56:28.276Z,3
2019-03-26T09:57:18.653Z,3
2019-03-26T09:58:18.641Z,3
2019-03-26T09:59:18.622Z,3
2019-03-26T10:00:18.621Z,3
2019-03-26T10:01:18.616Z,3
2019-03-26T10:02:18.680Z,3
2019-03-26T10:03:18.722Z,3
2019-03-26T10:04:18.622Z,4
2019-03-26T10:05:19.586Z,4
2019-03-26T10:06:23.721Z,4
2019-03-26T10:07:21.723Z,4
2019-03-26T10:08:18.759Z,4
2019-03-26T10:09:18.653Z,4
2019-03-26T10:10:18.620Z,4
2019-03-26T10:11:18.611Z,4
2019-03-26T10:12:18.612Z,4
2019-03-26T10:13:19.244Z,4
2019-03-26T10:17:18.714Z,3
2019-03-26T10:20:18.887Z,5
2019-03-26T10:21:18.652Z,4
2019-03-26T10:22:20.147Z,4
2019-03-26T10:23:18.634Z,3
2019-03-26T10:24:18.793Z,3
2019-03-26T10:25:18.653Z,3
2019-03-26T10:26:18.623Z,3
2019-03-26T10:27:18.623Z,3
2019-03-26T10:28:19.036Z,4
2019-03-26T10:29:29.554Z,4
2019-03-26T10:30:20.139Z,3
2019-03-26T10:31:19.005Z,3
2019-03-26T10:32:20.355Z,3
2019-03-26T10:33:18.498Z,2
2019-03-26T10:34:18.555Z,3
2019-03-26T10:35:18.486Z,2
2019-03-26T10:36:18.541Z,2
2019-03-26T10:37:18.519Z,3
2019-03-26T10:38:18.576Z,3
2019-03-26T10:39:18.677Z,3
2019-03-26T10:40:18.676Z,4
2019-03-26T10:41:18.905Z,4
2019-03-26T10:42:20.643Z,4
2019-03-26T10:43:18.645Z,4
2019-03-26T10:44:18.665Z,4
2019-03-26T10:45:18.693Z,4
2019-03-26T10:46:18.676Z,5
2019-03-26T10:47:19.433Z,4
2019-03-26T10:48:18.738Z,4
2019-03-26T10:49:18.747Z,5
2019-03-26T10:50:18.607Z,5
2019-03-26T10:51:21.387Z,5
2019-03-26T10:52:18.991Z,5
2019-03-26T10:53:18.665Z,5
2019-03-26T10:54:18.633Z,4
2019-03-26T10:55:18.662Z,4
2019-03-26T10:56:18.685Z,4
2019-03-26T10:57:21.720Z,4
2019-03-26T10:58:18.673Z,4
2019-03-26T10:59:18.815Z,4
2019-03-26T11:00:18.617Z,3
2019-03-26T11:01:18.698Z,3
2019-03-26T11:02:20.048Z,4
2019-03-26T11:03:19.282Z,4
2019-03-26T11:04:20.043Z,4
2019-03-26T11:05:18.655Z,4
2019-03-26T11:06:19.121Z,4
2019-03-26T11:07:18.628Z,4
2019-03-26T11:08:18.637Z,4
2019-03-26T11:09:24.260Z,4
2019-03-26T11:10:18.714Z,4
2019-03-26T11:11:18.788Z,4
2019-03-26T11:12:18.675Z,5
2019-03-26T11:13:18.634Z,5
2019-03-26T11:14:18.697Z,5
2019-03-26T11:15:18.682Z,5
2019-03-26T11:16:18.719Z,4
2019-03-26T11:17:18.709Z,5
2019-03-26T11:18:18.759Z,5
2019-03-26T11:19:20.315Z,5
2019-03-26T11:20:21.143Z,5
2019-03-26T11:21:18.720Z,3
2019-03-26T11:22:18.705Z,3
2019-03-26T11:23:18.646Z,2
2019-03-26T11:24:18.634Z,2
2019-03-26T11:25:19.739Z,2
2019-03-26T11:26:19.070Z,2
2019-03-26T11:27:18.766Z,2
2019-03-26T11:28:18.623Z,3
2019-03-26T11:29:18.663Z,3
2019-03-26T11:30:18.762Z,3
2019-03-26T11:31:18.763Z,3
2019-03-26T11:32:18.667Z,3
2019-03-26T11:33:18.648Z,3
2019-03-26T11:34:18.680Z,4
2019-03-26T11:35:18.648Z,3
2019-03-26T11:36:18.712Z,2
2019-03-26T11:37:18.723Z,2
2019-03-26T11:38:18.813Z,2
2019-03-26T11:39:31.806Z,2
2019-03-26T11:40:18.939Z,2
2019-03-26T11:41:18.732Z,2
2019-03-26T11:42:19.829Z,3
2019-03-26T11:43:20.866Z,3
2019-03-26T11:44:18.771Z,2
2019-03-26T11:45:18.649Z,2
2019-03-26T11:46:18.706Z,2
2019-03-26T11:47:18.699Z,2
2019-03-26T11:48:18.694Z,2
2019-03-26T11:49:18.765Z,2
2019-03-26T11:50:18.749Z,2
2019-03-26T11:51:18.648Z,3
2019-03-26T11:52:18.701Z,3
2019-03-26T11:53:18.911Z,2
2019-03-26T11:54:19.045Z,4
2019-03-26T11:55:21.718Z,4
2019-03-26T11:56:18.624Z,2
2019-03-26T11:57:18.712Z,3
2019-03-26T11:58:29.967Z,3
2019-03-26T11:59:18.649Z,4
2019-03-26T12:00:18.928Z,4
2019-03-26T12:01:19.165Z,5
2019-03-26T12:02:19.994Z,5
2019-03-26T12:03:20.536Z,5
2019-03-26T12:04:18.716Z,5
2019-03-26T12:05:18.735Z,6
2019-03-26T12:06:18.641Z,2
2019-03-26T12:07:19.116Z,3
2019-03-26T12:08:18.731Z,2
2019-03-26T12:09:18.706Z,2
2019-03-26T12:10:20.901Z,3
2019-03-26T12:11:18.747Z,2
2019-03-26T12:12:18.730Z,2
2019-03-26T12:13:18.675Z,2
2019-03-26T12:14:18.685Z,2
2019-03-26T12:15:18.645Z,2
2019-03-26T12:16:18.682Z,2
2019-03-26T12:17:18.674Z,2
2019-03-26T12:18:18.645Z,2
2019-03-26T12:19:18.624Z,3
2019-03-26T12:20:18.683Z,2
2019-03-26T12:21:18.637Z,2
2019-03-26T12:22:18.697Z,2
2019-03-26T12:23:18.659Z,2
2019-03-26T12:24:18.660Z,2
2019-03-26T12:25:18.645Z,2
2019-03-26T12:26:18.630Z,2
2019-03-26T12:27:18.745Z,3
2019-03-26T12:28:18.668Z,2
2019-03-26T12:29:18.660Z,2
2019-03-26T12:30:18.639Z,2
2019-03-26T12:31:18.645Z,2
2019-03-26T12:32:18.799Z,2
2019-03-26T12:33:18.635Z,2
2019-03-26T12:34:18.691Z,2
2019-03-26T12:35:18.765Z,2
2019-03-26T12:36:18.704Z,2
2019-03-26T12:37:18.727Z,2
2019-03-26T12:38:18.745Z,2
2019-03-26T12:39:18.650Z,2
2019-03-26T12:40:18.688Z,2
2019-03-26T12:41:18.747Z,2
2019-03-26T12:42:18.751Z,2
2019-03-26T12:43:18.700Z,2
2019-03-26T12:44:18.657Z,2
2019-03-26T12:45:18.672Z,3
2019-03-26T12:46:18.824Z,2
2019-03-26T12:47:18.675Z,2
2019-03-26T12:48:18.982Z,2
2019-03-26T12:49:18.661Z,2
2019-03-26T12:50:18.651Z,2
2019-03-26T12:51:18.760Z,2
2019-03-26T12:52:18.661Z,2
2019-03-26T12:53:18.713Z,2
2019-03-26T12:54:18.650Z,2
2019-03-26T12:55:18.649Z,2
2019-03-26T12:56:18.743Z,2
2019-03-26T12:57:18.653Z,2
2019-03-26T12:58:31.031Z,2
2019-03-26T12:59:18.920Z,2
2019-03-26T13:00:18.629Z,2
2019-03-26T13:01:18.729Z,2
2019-03-26T13:02:18.674Z,2
2019-03-26T13:03:18.666Z,2
2019-03-26T13:04:18.646Z,2
2019-03-26T13:05:18.663Z,2
2019-03-26T13:06:18.906Z,2
2019-03-26T13:07:19.040Z,2
2019-03-26T13:08:18.631Z,2
2019-03-26T13:09:18.636Z,2
2019-03-26T13:10:18.628Z,2
2019-03-26T13:11:18.635Z,2
2019-03-26T13:12:18.686Z,2
2019-03-26T13:13:18.649Z,2
2019-03-26T13:14:18.635Z,2
2019-03-26T13:15:18.648Z,2
2019-03-26T13:16:18.637Z,2
2019-03-26T13:17:18.669Z,2
2019-03-26T13:18:18.732Z,2
2019-03-26T13:19:18.662Z,2
2019-03-26T13:20:18.649Z,2
2019-03-26T13:21:18.669Z,2
2019-03-26T13:22:18.702Z,2
2019-03-26T13:23:18.646Z,2
2019-03-26T13:24:18.655Z,2
2019-03-26T13:25:18.632Z,2
2019-03-26T13:26:18.648Z,2
2019-03-26T13:27:18.746Z,2
2019-03-26T13:28:18.634Z,2
2019-03-26T13:29:18.642Z,2
2019-03-26T13:30:18.657Z,2
2019-03-26T13:31:18.667Z,2
2019-03-26T13:32:18.724Z,2
2019-03-26T13:33:18.718Z,2
2019-03-26T13:34:18.680Z,2
2019-03-26T13:35:18.645Z,2
2019-03-26T13:36:18.668Z,2
2019-03-26T13:37:21.650Z,3
2019-03-26T13:38:18.680Z,3
2019-03-26T13:39:18.635Z,3
2019-03-26T13:40:27.228Z,2
2019-03-26T13:41:18.668Z,2
2019-03-26T13:43:18.754Z,2
2019-03-26T13:44:18.665Z,2
2019-03-26T13:45:18.672Z,2
2019-03-26T13:46:18.683Z,2
2019-03-26T13:47:18.706Z,2
2019-03-26T13:48:18.727Z,2
2019-03-26T13:49:18.714Z,2
2019-03-26T13:50:18.639Z,2
2019-03-26T13:51:18.718Z,2
2019-03-26T13:52:18.660Z,2
2019-03-26T13:53:18.686Z,2
2019-03-26T13:54:18.804Z,3
2019-03-26T13:55:18.676Z,2
2019-03-26T13:56:18.681Z,2
2019-03-26T13:57:18.642Z,2
2019-03-26T13:58:18.646Z,2
2019-03-26T13:59:18.664Z,2
2019-03-26T14:00:18.772Z,2
2019-03-26T14:01:18.688Z,2
2019-03-26T14:02:18.933Z,3
2019-03-26T14:03:18.721Z,2
2019-03-26T14:04:18.707Z,2
2019-03-26T14:05:18.715Z,2
2019-03-26T14:06:18.641Z,2
2019-03-26T14:07:18.688Z,2
2019-03-26T14:08:18.683Z,2
2019-03-26T14:09:18.661Z,2
2019-03-26T14:10:18.725Z,2
2019-03-26T14:11:18.686Z,2
2019-03-26T14:12:18.643Z,2
2019-03-26T14:13:18.704Z,2
2019-03-26T14:14:18.654Z,2
2019-03-26T14:15:18.663Z,2
2019-03-26T14:16:18.751Z,2
2019-03-26T14:17:18.671Z,2
2019-03-26T14:18:18.646Z,2
2019-03-26T14:19:18.634Z,2
2019-03-26T14:20:18.654Z,2
2019-03-26T14:21:18.743Z,2
2019-03-26T14:22:18.669Z,2
2019-03-26T14:23:18.652Z,2
2019-03-26T14:24:18.642Z,3
2019-03-26T14:25:18.729Z,3
2019-03-26T14:26:18.776Z,3
2019-03-26T14:27:18.641Z,3
2019-03-26T14:28:18.651Z,3
2019-03-26T14:29:19.012Z,3
2019-03-26T14:30:18.673Z,3
2019-03-26T14:31:18.787Z,3
2019-03-26T14:32:18.693Z,3
2019-03-26T14:33:18.644Z,3
2019-03-26T14:34:18.632Z,3
2019-03-26T14:35:18.751Z,3
2019-03-26T14:36:18.701Z,4
2019-03-26T14:37:18.674Z,3
2019-03-26T14:38:18.720Z,3
2019-03-26T14:39:18.784Z,4
2019-03-26T14:40:18.682Z,3
2019-03-26T14:41:18.649Z,3
2019-03-26T14:42:18.753Z,4
2019-03-26T14:43:19.512Z,5
2019-03-26T14:44:20.275Z,7
2019-03-26T14:45:19.803Z,6
2019-03-26T14:46:24.121Z,7
2019-03-26T14:47:20.280Z,6
2019-03-26T14:48:21.360Z,6
2019-03-26T14:49:19.139Z,8
2019-03-26T14:50:21.019Z,9
2019-03-26T14:51:18.655Z,3
2019-03-26T14:52:18.644Z,2
2019-03-26T14:53:18.654Z,2
2019-03-26T14:54:18.659Z,2
2019-03-26T14:55:18.703Z,2
2019-03-26T14:56:18.660Z,2
2019-03-26T14:57:18.684Z,2
2019-03-26T14:58:18.650Z,2
2019-03-26T14:59:18.661Z,2